createdAt,value
2022-07-27T00:00:57.532Z,4.70
2022-07-27T00:03:24.694Z,3.10
2022-07-27T00:05:51.896Z,3.70
2022-07-27T00:08:24.049Z,1.87
2022-07-27T00:10:52.464Z,5.60
2022-07-27T00:13:20.141Z,3.30
2022-07-27T00:15:47.516Z,5.10
2022-07-27T00:18:14.714Z,2.20
2022-07-27T00:20:42.206Z,7.83
2022-07-27T00:23:10.243Z,3.27
2022-07-27T00:25:37.438Z,4.67
2022-07-27T00:28:05.166Z,3.60
2022-07-27T00:30:32.336Z,4.00
2022-07-27T00:33:00.424Z,3.80
2022-07-27T00:35:27.709Z,8.50
2022-07-27T00:37:54.876Z,4.23
2022-07-27T00:40:22.108Z,6.87
2022-07-27T00:42:49.468Z,5.10
2022-07-27T00:45:16.659Z,3.20
2022-07-27T00:47:43.818Z,3.97
2022-07-27T00:50:11.036Z,2.53
2022-07-27T00:52:39.022Z,4.13
2022-07-27T00:55:06.934Z,9.43
2022-07-27T00:57:57.897Z,5.90
2022-07-27T01:00:24.219Z,3.30
2022-07-27T01:02:51.837Z,4.77
2022-07-27T01:05:19.445Z,5.83
2022-07-27T01:07:49.524Z,8.53
2022-07-27T01:10:17.946Z,6.10
2022-07-27T01:12:46.197Z,5.93
2022-07-27T01:15:13.779Z,7.30
2022-07-27T01:17:41.009Z,4.90
2022-07-27T01:20:08.778Z,5.10
2022-07-27T01:22:36.136Z,3.33
2022-07-27T01:25:03.520Z,4.13
2022-07-27T01:27:30.704Z,5.23
2022-07-27T01:29:57.848Z,5.70
2022-07-27T01:32:25.014Z,3.37
2022-07-27T01:34:52.217Z,9.73
2022-07-27T01:37:19.433Z,3.60
2022-07-27T01:39:46.563Z,3.87
2022-07-27T01:42:13.719Z,5.00
2022-07-27T01:44:40.867Z,3.97
2022-07-27T01:47:14.423Z,3.63
2022-07-27T01:49:42.031Z,4.77
2022-07-27T01:52:09.207Z,3.10
2022-07-27T01:54:36.466Z,3.10
2022-07-27T01:57:03.652Z,4.83
2022-07-27T01:59:30.771Z,4.63
2022-07-27T02:01:58.012Z,4.87
2022-07-27T02:04:25.238Z,3.40
2022-07-27T02:06:52.443Z,3.23
2022-07-27T02:09:21.034Z,2.80
2022-07-27T02:12:06.875Z,3.23
2022-07-27T02:14:34.012Z,4.10
2022-07-27T02:17:01.348Z,5.80
2022-07-27T02:19:29.486Z,3.63
2022-07-27T02:21:59.485Z,3.10
2022-07-27T02:24:27.589Z,3.50
2022-07-27T02:26:54.710Z,5.70
2022-07-27T02:29:21.900Z,3.67
2022-07-27T02:31:49.040Z,2.53
2022-07-27T02:34:16.163Z,4.77
2022-07-27T02:36:43.248Z,2.80
2022-07-27T02:39:10.515Z,3.90
2022-07-27T02:41:37.838Z,4.47
2022-07-27T02:44:05.228Z,1.70
2022-07-27T02:46:35.274Z,3.73
2022-07-27T02:49:02.518Z,7.77
2022-07-27T02:51:29.869Z,6.67
2022-07-27T02:53:57.045Z,3.87
2022-07-27T02:56:27.064Z,3.77
2022-07-27T02:58:55.224Z,5.63
2022-07-27T03:01:22.467Z,3.30
2022-07-27T03:03:49.648Z,8.40
2022-07-27T03:06:16.904Z,9.07
2022-07-27T03:08:44.085Z,4.43
2022-07-27T03:11:11.286Z,3.03
2022-07-27T03:13:38.382Z,10.13
2022-07-27T03:16:06.351Z,3.30
2022-07-27T03:18:33.787Z,5.60
2022-07-27T03:21:00.938Z,4.80
2022-07-27T03:23:28.117Z,6.33
2022-07-27T03:25:55.398Z,5.97
2022-07-27T03:28:22.515Z,4.50
2022-07-27T03:30:49.737Z,5.67
2022-07-27T03:33:17.005Z,5.93
2022-07-27T03:35:44.475Z,4.17
2022-07-27T03:38:11.646Z,7.77
2022-07-27T03:40:38.890Z,6.47
2022-07-27T03:43:06.038Z,5.17
2022-07-27T03:45:33.253Z,5.00
2022-07-27T03:48:00.644Z,3.70
2022-07-27T03:50:30.859Z,4.63
2022-07-27T03:52:58.153Z,4.50
2022-07-27T03:55:25.787Z,5.70
2022-07-27T03:57:52.967Z,4.53
2022-07-27T04:00:20.529Z,6.37
2022-07-27T04:02:47.806Z,3.33
2022-07-27T04:05:15.388Z,3.33
2022-07-27T04:07:42.631Z,5.97
2022-07-27T04:10:10.739Z,7.57
2022-07-27T04:12:38.918Z,6.90
2022-07-27T04:15:07.610Z,4.53
2022-07-27T04:17:54.999Z,4.70
2022-07-27T04:20:21.961Z,3.83
2022-07-27T04:22:49.231Z,2.20
2022-07-27T04:25:16.973Z,3.40
2022-07-27T04:27:44.205Z,4.47
2022-07-27T04:30:12.148Z,2.10
2022-07-27T04:32:39.430Z,5.17
2022-07-27T04:35:07.716Z,8.30
2022-07-27T04:37:35.285Z,4.23
2022-07-27T04:40:02.958Z,3.23
2022-07-27T04:42:30.353Z,2.77
2022-07-27T04:45:00.688Z,8.80
2022-07-27T04:47:27.865Z,9.87
2022-07-27T04:49:55.029Z,5.50
2022-07-27T04:52:25.508Z,6.40
2022-07-27T04:54:54.944Z,3.73
2022-07-27T04:57:23.301Z,5.90
2022-07-27T04:59:50.524Z,5.60
2022-07-27T05:02:17.759Z,3.27
2022-07-27T05:04:44.898Z,4.47
2022-07-27T05:07:12.093Z,6.50
2022-07-27T05:09:39.326Z,3.67
2022-07-27T05:12:06.733Z,6.57
2022-07-27T05:14:33.833Z,5.47
2022-07-27T05:17:01.042Z,4.43
2022-07-27T05:19:40.337Z,4.33
2022-07-27T05:22:09.353Z,4.30
2022-07-27T05:24:36.660Z,4.00
2022-07-27T05:27:03.948Z,6.67
2022-07-27T05:29:31.037Z,9.60
2022-07-27T05:31:58.258Z,5.07
2022-07-27T05:34:25.574Z,3.10
2022-07-27T05:36:52.870Z,3.50
2022-07-27T05:39:20.654Z,7.80
2022-07-27T05:41:48.937Z,5.67
2022-07-27T05:44:17.025Z,3.83
2022-07-27T05:46:44.498Z,3.30
2022-07-27T05:49:12.887Z,4.87
2022-07-27T05:51:40.245Z,4.60
2022-07-27T05:54:08.190Z,3.53
2022-07-27T05:56:35.765Z,3.17
2022-07-27T05:59:07.120Z,3.90
2022-07-27T06:01:34.989Z,3.23
2022-07-27T06:04:02.307Z,3.40
2022-07-27T06:06:47.975Z,6.70
2022-07-27T06:09:15.529Z,5.90
2022-07-27T06:11:43.785Z,4.80
2022-07-27T06:14:11.185Z,4.50
2022-07-27T06:16:41.154Z,3.97
2022-07-27T06:19:08.578Z,3.77
2022-07-27T06:21:36.237Z,2.00
2022-07-27T06:24:03.584Z,6.00
2022-07-27T06:26:30.712Z,5.93
2022-07-27T06:28:58.920Z,6.97
2022-07-27T06:31:27.618Z,3.70
2022-07-27T06:33:57.778Z,2.80
2022-07-27T06:36:29.214Z,6.50
2022-07-27T06:38:56.401Z,5.00
2022-07-27T06:42:39.750Z,5.70
2022-07-27T06:45:07.845Z,2.90
2022-07-27T06:47:35.057Z,4.53
2022-07-27T06:50:02.683Z,7.30
2022-07-27T06:52:29.837Z,4.87
2022-07-27T06:54:57.582Z,7.00
2022-07-27T06:57:24.698Z,1.47
2022-07-27T06:59:51.849Z,3.30
2022-07-27T07:02:19.506Z,5.47
2022-07-27T07:04:46.744Z,9.63
2022-07-27T07:07:14.286Z,48.17
2022-07-27T07:09:41.490Z,18.70
2022-07-27T07:12:08.640Z,13.87
2022-07-27T07:14:35.820Z,29.60
2022-07-27T07:17:02.985Z,16.97
2022-07-27T07:19:30.118Z,9.87
2022-07-27T07:21:57.258Z,8.97
2022-07-27T07:24:24.385Z,7.73
2022-07-27T07:26:51.560Z,23.33
2022-07-27T07:29:18.837Z,8.17
2022-07-27T07:31:46.026Z,9.97
2022-07-27T07:34:13.159Z,9.43
2022-07-27T07:36:40.260Z,15.93
2022-07-27T07:39:07.447Z,10.73
2022-07-27T07:41:36.535Z,5.80
2022-07-27T07:44:04.169Z,4.00
2022-07-27T07:46:31.965Z,14.23
2022-07-27T07:48:59.270Z,6.83
2022-07-27T07:51:26.380Z,16.37
2022-07-27T07:53:53.502Z,10.43
2022-07-27T07:56:20.603Z,17.13
2022-07-27T07:58:48.960Z,5.43
2022-07-27T08:01:16.186Z,5.20
2022-07-27T08:03:50.349Z,5.60
2022-07-27T08:06:18.443Z,9.67
2022-07-27T08:08:45.588Z,6.83
2022-07-27T08:11:12.959Z,8.17
2022-07-27T08:13:40.220Z,4.53
2022-07-27T08:16:07.613Z,5.47
2022-07-27T08:18:34.767Z,4.07
2022-07-27T08:21:01.941Z,4.50
2022-07-27T08:23:29.147Z,5.80
2022-07-27T08:25:56.229Z,6.50
2022-07-27T08:28:23.408Z,5.73
2022-07-27T08:30:50.621Z,2.80
2022-07-27T08:33:18.043Z,7.63
2022-07-27T08:35:46.246Z,4.57
2022-07-27T08:38:13.423Z,5.53
2022-07-27T08:40:44.285Z,5.23
2022-07-27T08:43:23.768Z,4.93
2022-07-27T08:45:57.572Z,5.30
2022-07-27T08:48:26.381Z,4.83
2022-07-27T08:50:54.311Z,9.23
2022-07-27T08:53:22.432Z,4.33
2022-07-27T08:55:50.435Z,3.93
2022-07-27T08:58:18.097Z,4.27
2022-07-27T09:00:50.020Z,6.10
2022-07-27T09:03:20.849Z,3.87
2022-07-27T09:05:50.061Z,2.80
2022-07-27T09:08:24.660Z,3.77
2022-07-27T09:10:56.745Z,3.00
2022-07-27T09:13:33.371Z,3.40
2022-07-27T09:16:17.668Z,3.10
2022-07-27T09:18:45.778Z,3.33
2022-07-27T09:21:21.200Z,2.00
2022-07-27T09:23:57.361Z,4.77
2022-07-27T09:26:34.891Z,4.47
2022-07-27T09:29:03.988Z,7.73
2022-07-27T09:31:31.996Z,2.00
2022-07-27T09:34:01.724Z,2.67
2022-07-27T09:36:30.253Z,1.87
2022-07-27T09:39:05.710Z,4.13
2022-07-27T09:41:41.591Z,2.13
2022-07-27T09:46:56.168Z,4.20
2022-07-27T09:49:34.546Z,3.13
2022-07-27T09:52:03.511Z,3.47
2022-07-27T09:54:44.479Z,3.30
2022-07-27T09:57:11.864Z,2.00
2022-07-27T09:59:39.106Z,3.77
2022-07-27T10:02:06.861Z,3.03
2022-07-27T10:04:34.353Z,4.43
2022-07-27T10:07:05.276Z,3.40
2022-07-27T10:09:35.105Z,3.07
2022-07-27T10:12:04.840Z,3.50
2022-07-27T10:14:33.422Z,1.90
2022-07-27T10:17:01.592Z,5.87
2022-07-27T10:19:36.706Z,3.93
2022-07-27T10:22:03.861Z,3.93
2022-07-27T10:24:36.333Z,6.97
2022-07-27T10:27:26.458Z,4.20
2022-07-27T10:29:54.741Z,5.63
2022-07-27T10:32:25.713Z,5.43
2022-07-27T10:34:53.085Z,3.37
2022-07-27T10:37:32.494Z,3.13
2022-07-27T10:40:25.808Z,5.67
2022-07-27T10:43:07.486Z,1.77
2022-07-27T10:46:01.297Z,11.13
2022-07-27T10:48:45.890Z,2.70
2022-07-27T10:51:35.269Z,9.13
2022-07-27T10:54:32.601Z,6.40
2022-07-27T10:57:02.589Z,2.97
2022-07-27T11:00:07.418Z,7.57
2022-07-27T11:02:41.026Z,5.90
2022-07-27T11:05:42.649Z,8.13
2022-07-27T11:10:49.795Z,4.67
2022-07-27T11:13:21.912Z,6.50
2022-07-27T11:18:59.155Z,3.87
2022-07-27T11:21:48.751Z,5.40
2022-07-27T11:24:19.040Z,2.70
2022-07-27T11:26:47.518Z,6.10
2022-07-27T11:29:16.676Z,3.30
2022-07-27T11:31:55.170Z,3.40
2022-07-27T11:34:33.855Z,1.93
2022-07-27T11:37:03.276Z,3.20
2022-07-27T11:42:21.811Z,3.60
2022-07-27T11:44:53.115Z,5.23
2022-07-27T11:47:24.270Z,7.63
2022-07-27T11:49:52.307Z,2.70
2022-07-27T11:52:19.637Z,4.93
2022-07-27T11:54:52.007Z,1.60
2022-07-27T11:57:21.062Z,3.40
2022-07-27T11:59:48.399Z,6.30
2022-07-27T12:02:18.345Z,5.20
2022-07-27T12:04:50.104Z,5.70
2022-07-27T12:07:31.818Z,5.40
2022-07-27T12:10:02.242Z,4.20
2022-07-27T12:12:33.874Z,7.50
2022-07-27T12:15:42.987Z,5.20
2022-07-27T12:18:08.494Z,7.80
2022-07-27T12:20:37.905Z,7.60
2022-07-27T12:23:07.579Z,10.77
2022-07-27T12:25:35.825Z,22.03
2022-07-27T12:28:07.674Z,15.93
2022-07-27T12:30:47.021Z,19.77
2022-07-27T12:33:35.326Z,21.73
2022-07-27T12:36:04.358Z,11.90
2022-07-27T12:38:45.943Z,7.60
2022-07-27T12:41:29.677Z,15.03
2022-07-27T12:44:05.818Z,5.20
2022-07-27T12:46:32.982Z,5.63
2022-07-27T12:49:00.476Z,7.10
2022-07-27T12:51:27.777Z,12.53
2022-07-27T12:53:54.934Z,9.10
2022-07-27T12:56:27.487Z,7.43
2022-07-27T12:59:03.134Z,5.37
2022-07-27T13:01:30.465Z,11.53
2022-07-27T13:03:57.676Z,3.57
2022-07-27T13:06:24.790Z,5.90
2022-07-27T13:08:51.895Z,7.63
2022-07-27T13:11:22.049Z,5.00
2022-07-27T13:13:49.296Z,8.47
2022-07-27T13:16:19.169Z,4.77
2022-07-27T13:18:46.617Z,7.90
2022-07-27T13:21:14.101Z,2.60
2022-07-27T13:23:41.654Z,2.93
2022-07-27T13:26:09.092Z,4.27
2022-07-27T13:28:36.702Z,6.60
2022-07-27T13:31:03.912Z,3.30
2022-07-27T13:33:30.991Z,2.03
2022-07-27T13:36:00.420Z,6.83
2022-07-27T13:38:28.742Z,2.73
2022-07-27T13:40:57.837Z,2.83
2022-07-27T13:43:25.106Z,2.40
2022-07-27T13:45:52.256Z,6.10
2022-07-27T13:48:19.466Z,5.37
2022-07-27T13:50:46.725Z,7.10
2022-07-27T13:53:15.817Z,4.10
2022-07-27T13:55:46.345Z,5.70
2022-07-27T13:58:14.018Z,2.83
2022-07-27T14:00:41.440Z,4.13
2022-07-27T14:03:11.355Z,4.03
2022-07-27T14:05:39.545Z,3.00
2022-07-27T14:08:17.768Z,5.20
2022-07-27T14:10:45.230Z,3.40
2022-07-27T14:13:14.233Z,3.50
2022-07-27T14:15:50.662Z,4.07
2022-07-27T14:18:26.618Z,6.10
2022-07-27T14:20:57.366Z,3.67
2022-07-27T14:23:25.620Z,3.40
2022-07-27T14:25:53.894Z,4.57
2022-07-27T14:28:21.514Z,2.97
2022-07-27T14:30:49.249Z,3.47
2022-07-27T14:33:16.994Z,2.27
2022-07-27T14:35:44.908Z,4.10
2022-07-27T14:38:12.413Z,7.70
2022-07-27T14:40:40.677Z,2.07
2022-07-27T14:43:09.071Z,2.63
2022-07-27T14:45:44.791Z,3.87
2022-07-27T14:48:21.413Z,13.67
2022-07-27T14:50:52.540Z,54.33
2022-07-27T14:53:19.690Z,23.90
2022-07-27T14:55:46.904Z,20.03
2022-07-27T14:58:14.057Z,13.53
2022-07-27T15:00:41.372Z,12.93
2022-07-27T15:03:08.595Z,11.80
2022-07-27T15:05:49.449Z,7.93
2022-07-27T15:08:20.709Z,11.90
2022-07-27T15:10:48.727Z,13.77
2022-07-27T15:13:16.342Z,11.57
2022-07-27T15:15:43.576Z,5.40
2022-07-27T15:18:10.759Z,6.23
2022-07-27T15:20:37.904Z,7.40
2022-07-27T15:23:06.641Z,11.83
2022-07-27T15:25:34.055Z,6.40
2022-07-27T15:28:01.341Z,4.17
2022-07-27T15:30:28.865Z,4.13
2022-07-27T15:32:56.025Z,4.10
2022-07-27T15:35:23.133Z,4.77
2022-07-27T15:37:54.404Z,7.93
2022-07-27T15:40:38.445Z,4.83
2022-07-27T15:43:11.919Z,4.23
2022-07-27T15:45:40.792Z,3.03
2022-07-27T15:48:09.193Z,5.87
2022-07-27T15:50:38.530Z,3.90
2022-07-27T15:53:07.404Z,5.53
2022-07-27T15:55:35.534Z,7.37
2022-07-27T15:58:03.470Z,3.63
2022-07-27T16:00:34.189Z,2.03
2022-07-27T16:03:05.807Z,3.63
2022-07-27T16:05:36.018Z,6.90
2022-07-27T16:08:03.836Z,6.63
2022-07-27T16:10:31.035Z,4.00
2022-07-27T16:13:00.692Z,4.73
2022-07-27T16:15:46.973Z,4.77
2022-07-27T16:18:14.101Z,4.53
2022-07-27T16:20:41.253Z,3.03
2022-07-27T16:23:17.819Z,3.10
2022-07-27T16:26:04.466Z,2.53
2022-07-27T16:28:34.585Z,5.30
2022-07-27T16:31:03.541Z,23.40
2022-07-27T16:33:30.890Z,247.87
2022-07-27T16:35:59.986Z,148.93
2022-07-27T16:39:19.909Z,85.67
2022-07-27T16:41:51.717Z,76.90
2022-07-27T16:44:22.542Z,55.03
2022-07-27T16:46:50.005Z,48.23
2022-07-27T16:49:18.613Z,61.93
2022-07-27T16:51:46.668Z,38.50
2022-07-27T16:54:14.116Z,50.03
2022-07-27T16:56:41.356Z,27.90
2022-07-27T16:59:09.554Z,33.57
2022-07-27T17:01:36.828Z,23.00
2022-07-27T17:04:04.492Z,16.90
2022-07-27T17:06:32.064Z,11.10
2022-07-27T17:08:59.273Z,13.10
2022-07-27T17:11:29.696Z,9.53
2022-07-27T17:13:59.317Z,38.60
2022-07-27T17:16:27.814Z,28.17
2022-07-27T17:18:55.547Z,38.93
2022-07-27T17:21:22.805Z,55.07
2022-07-27T17:23:49.952Z,39.93
2022-07-27T17:26:17.058Z,34.03
2022-07-27T17:28:44.300Z,2.90
2022-07-27T17:31:13.644Z,67.37
2022-07-27T17:33:41.698Z,17.43
2022-07-27T17:36:14.889Z,56.53
2022-07-27T17:38:46.584Z,24.50
2022-07-27T17:41:18.112Z,18.57
2022-07-27T17:43:49.058Z,32.63
2022-07-27T17:46:16.372Z,16.53
2022-07-27T17:48:43.727Z,18.27
2022-07-27T17:51:11.680Z,32.63
2022-07-27T17:53:39.278Z,18.50
2022-07-27T17:56:08.501Z,11.43
2022-07-27T17:58:35.924Z,25.57
2022-07-27T18:01:03.872Z,18.43
2022-07-27T18:03:31.083Z,3.23
2022-07-27T18:05:58.713Z,8.13
2022-07-27T18:08:25.878Z,2.43
2022-07-27T18:10:56.251Z,7.80
2022-07-27T18:13:23.641Z,4.57
2022-07-27T18:16:08.099Z,5.00
2022-07-27T18:18:37.242Z,4.50
2022-07-27T18:21:05.131Z,1.93
2022-07-27T18:23:32.863Z,14.27
2022-07-27T18:26:00.331Z,2.40
2022-07-27T18:28:27.580Z,4.50
2022-07-27T18:30:55.126Z,4.67
2022-07-27T18:33:23.359Z,4.83
2022-07-27T18:35:50.596Z,1.53
2022-07-27T18:38:18.252Z,1.63
2022-07-27T18:40:47.685Z,2.83
2022-07-27T18:43:16.150Z,3.47
2022-07-27T18:45:43.746Z,2.17
2022-07-27T18:48:11.379Z,2.27
2022-07-27T18:50:43.550Z,3.10
2022-07-27T18:53:10.841Z,6.00
2022-07-27T18:55:38.791Z,7.17
2022-07-27T18:58:09.095Z,5.43
2022-07-27T19:00:38.552Z,3.23
2022-07-27T19:03:07.484Z,4.07
2022-07-27T19:05:41.656Z,2.77
2022-07-27T19:08:13.265Z,3.90
2022-07-27T19:10:48.932Z,1.70
2022-07-27T19:13:16.243Z,4.87
2022-07-27T19:15:44.950Z,3.23
2022-07-27T19:18:15.540Z,6.33
2022-07-27T19:20:42.745Z,2.33
2022-07-27T19:23:10.049Z,3.80
2022-07-27T19:25:37.543Z,2.40
2022-07-27T19:28:05.081Z,161.70
2022-07-27T19:30:32.408Z,57.33
2022-07-27T19:33:00.650Z,56.10
2022-07-27T19:35:27.875Z,57.40
2022-07-27T19:37:55.052Z,65.97
2022-07-27T19:43:10.373Z,36.63
2022-07-27T19:45:37.518Z,41.50
2022-07-27T19:48:06.152Z,41.77
2022-07-27T19:50:33.401Z,36.10
2022-07-27T19:53:01.363Z,29.70
2022-07-27T19:55:28.522Z,31.53
2022-07-27T19:57:55.645Z,37.07
2022-07-27T20:00:22.880Z,19.90
2022-07-27T20:02:50.413Z,19.53
2022-07-27T20:05:17.687Z,16.07
2022-07-27T20:07:45.471Z,10.60
2022-07-27T20:10:12.799Z,12.07
2022-07-27T20:12:40.037Z,18.93
2022-07-27T20:15:08.123Z,10.23
2022-07-27T20:17:40.551Z,11.37
2022-07-27T20:20:09.253Z,9.30
2022-07-27T20:22:41.094Z,6.63
2022-07-27T20:25:10.678Z,10.37
2022-07-27T20:27:38.732Z,3.93
2022-07-27T20:30:06.453Z,6.77
2022-07-27T20:32:34.030Z,7.83
2022-07-27T20:35:01.485Z,4.40
2022-07-27T20:37:28.812Z,11.87
2022-07-27T20:39:55.987Z,5.57
2022-07-27T20:42:23.120Z,4.20
2022-07-27T20:44:50.379Z,5.33
2022-07-27T20:47:17.600Z,6.03
2022-07-27T20:49:44.756Z,4.27
2022-07-27T20:52:12.084Z,5.20
2022-07-27T20:54:39.294Z,4.50
2022-07-27T20:57:09.388Z,2.80
2022-07-27T20:59:36.957Z,3.03
2022-07-27T21:02:04.758Z,4.23
2022-07-27T21:04:31.996Z,2.30
2022-07-27T21:06:59.101Z,3.03
2022-07-27T21:09:26.271Z,3.50
2022-07-27T21:11:53.546Z,1.93
2022-07-27T21:14:20.776Z,4.10
2022-07-27T21:16:48.018Z,5.00
2022-07-27T21:19:15.706Z,3.83
2022-07-27T21:21:43.379Z,1.50
2022-07-27T21:24:17.411Z,2.00
2022-07-27T21:26:48.700Z,1.93
2022-07-27T21:29:17.364Z,3.20
2022-07-27T21:31:49.453Z,4.10
2022-07-27T21:34:20.067Z,23.83
2022-07-27T21:36:47.900Z,25.07
2022-07-27T21:39:16.125Z,2.20
2022-07-27T21:41:43.286Z,2.83
2022-07-27T21:44:10.768Z,2.90
2022-07-27T21:46:38.158Z,2.30
2022-07-27T21:49:05.579Z,3.33
2022-07-27T21:51:35.972Z,2.23
2022-07-27T21:54:03.178Z,2.03
2022-07-27T21:56:30.332Z,5.43
2022-07-27T21:58:57.601Z,1.47
2022-07-27T22:01:24.900Z,5.40
2022-07-27T22:03:52.584Z,2.63
2022-07-27T22:06:19.914Z,2.83
2022-07-27T22:08:47.276Z,2.97
2022-07-27T22:11:14.542Z,2.13
2022-07-27T22:13:41.733Z,2.23
2022-07-27T22:16:09.502Z,1.40
2022-07-27T22:18:36.728Z,3.03
2022-07-27T22:21:03.983Z,3.30
2022-07-27T22:23:31.236Z,2.67
2022-07-27T22:25:58.420Z,1.47
2022-07-27T22:28:26.145Z,1.93
2022-07-27T22:31:20.484Z,1.90
2022-07-27T22:33:44.272Z,3.90
2022-07-27T22:36:12.680Z,1.40
2022-07-27T22:38:40.403Z,1.77
2022-07-27T22:41:08.205Z,1.90
2022-07-27T22:43:35.627Z,1.80
2022-07-27T22:46:04.248Z,4.67
2022-07-27T22:48:31.842Z,2.17
2022-07-27T22:50:59.006Z,1.93
2022-07-27T22:53:26.314Z,3.60
2022-07-27T22:55:54.042Z,1.50
2022-07-27T22:58:21.839Z,2.17
2022-07-27T23:00:49.235Z,3.30
2022-07-27T23:03:16.989Z,2.73
2022-07-27T23:05:44.269Z,2.40
2022-07-27T23:08:11.475Z,3.57
2022-07-27T23:10:47.619Z,5.20
2022-07-27T23:13:19.499Z,2.17
2022-07-27T23:15:47.627Z,8.23
2022-07-27T23:18:16.952Z,3.47
2022-07-27T23:20:44.532Z,1.30
2022-07-27T23:23:16.676Z,2.40
2022-07-27T23:25:48.797Z,4.57
2022-07-27T23:28:16.618Z,1.50
2022-07-27T23:30:44.215Z,1.80
2022-07-27T23:33:11.573Z,3.23
2022-07-27T23:35:38.968Z,3.30
2022-07-27T23:38:06.203Z,2.23
2022-07-27T23:40:33.510Z,2.17
2022-07-27T23:43:00.900Z,4.40
2022-07-27T23:45:28.310Z,1.20
2022-07-27T23:47:55.810Z,2.57
2022-07-27T23:50:23.179Z,1.30
2022-07-27T23:52:50.531Z,1.87
2022-07-27T23:55:18.265Z,10.03
2022-07-27T23:57:45.815Z,3.00
